Time;durP1;ratioP1;P1;durP2;ratioP2;P2;SDS_P1;SDS_P2;PMS_P1;PMS_P2;Temp;Humidity;BMP_temperature;BMP_pressure;BME280_temperature;BME280_humidity;BME280_pressure;Samples;Min_cycle;Max_cycle;Signal;HPM_P1;HPM_P2
2021/01/18 00:01:38;;;;;;;23.10;4.05;;;1.60;97.00;;;;;;4953366;28;20105;-82
2021/01/18 00:04:04;;;;;;;23.50;4.05;;;1.60;97.00;;;;;;4953700;28;20091;-83
2021/01/18 00:06:33;;;;;;;23.02;4.95;;;1.60;97.00;;;;;;4953389;28;20055;-80
2021/01/18 00:08:59;;;;;;;26.00;5.00;;;1.50;97.00;;;;;;4953678;28;20050;-84
2021/01/18 00:11:25;;;;;;;20.38;4.72;;;1.60;97.00;;;;;;4953951;28;20091;-83
2021/01/18 00:13:52;;;;;;;23.90;4.18;;;1.60;97.00;;;;;;4952593;29;20043;-84
2021/01/18 00:16:20;;;;;;;22.02;5.22;;;1.60;97.00;;;;;;4953483;29;20054;-84
2021/01/18 00:18:46;;;;;;;17.25;5.28;;;1.60;97.30;;;;;;4963917;28;20486;-84
2021/01/18 00:21:13;;;;;;;13.80;4.35;;;1.50;97.00;;;;;;4967503;28;20524;-84
2021/01/18 00:23:40;;;;;;;29.83;6.40;;;1.50;97.00;;;;;;4952923;29;20047;-84
2021/01/18 00:26:06;;;;;;;16.95;5.82;;;1.50;97.00;;;;;;4953789;29;20047;-83
2021/01/18 00:28:35;;;;;;;19.30;5.85;;;1.40;97.00;;;;;;4968609;28;20074;-83
2021/01/18 00:31:03;;;;;;;19.40;3.92;;;1.40;97.10;;;;;;4956236;29;20061;-83
2021/01/18 00:33:28;;;;;;;26.75;6.28;;;1.50;97.10;;;;;;4956059;29;20103;-83
2021/01/18 00:35:55;;;;;;;17.88;4.00;;;1.40;97.00;;;;;;4955882;29;20078;-83
2021/01/18 00:38:21;;;;;;;21.05;4.18;;;1.40;97.00;;;;;;4957118;28;20054;-83
2021/01/18 00:40:47;;;;;;;25.10;6.90;;;1.40;97.00;;;;;;4961116;29;20047;-84
2021/01/18 00:43:13;;;;;;;16.40;5.60;;;1.40;97.00;;;;;;4974241;28;20046;-83
2021/01/18 00:45:39;;;;;;;16.55;5.90;;;1.40;97.30;;;;;;4937511;29;20048;-83
2021/01/18 00:48:05;;;;;;;15.20;5.22;;;1.30;97.00;;;;;;4940126;29;20061;-84
2021/01/18 00:50:31;;;;;;;17.40;3.70;;;1.30;97.00;;;;;;4939890;29;20054;-81
2021/01/18 00:52:59;;;;;;;22.15;3.85;;;1.30;97.00;;;;;;4939717;29;20166;-82
2021/01/18 00:55:25;;;;;;;18.95;3.45;;;1.30;97.10;;;;;;4940523;29;20054;-83
2021/01/18 00:57:51;;;;;;;25.15;3.25;;;1.30;97.10;;;;;;4938955;29;20368;-84
2021/01/18 01:00:19;;;;;;;20.20;3.70;;;1.40;97.10;;;;;;4939180;29;20480;-83
2021/01/18 01:02:47;;;;;;;16.08;3.20;;;1.30;97.00;;;;;;4940184;29;20073;-83
2021/01/18 01:05:19;;;;;;;16.55;3.08;;;1.40;97.10;;;;;;4939882;29;20052;-84
2021/01/18 01:07:47;;;;;;;17.40;3.65;;;1.40;97.00;;;;;;4938838;29;20484;-82
2021/01/18 01:10:19;;;;;;;16.30;3.15;;;1.40;97.00;;;;;;4939156;29;20503;-83
2021/01/18 01:12:45;;;;;;;17.83;4.05;;;1.40;97.00;;;;;;4937310;29;20051;-83
2021/01/18 01:15:12;;;;;;;16.15;3.72;;;1.40;97.00;;;;;;4935886;29;20040;-82
2021/01/18 01:17:42;;;;;;;17.17;3.67;;;1.40;97.00;;;;;;4939902;28;20055;-82
2021/01/18 01:20:13;;;;;;;14.32;3.20;;;1.40;97.00;;;;;;4975757;28;20062;-83
2021/01/18 01:22:39;;;;;;;19.90;2.78;;;1.40;97.00;;;;;;4974579;28;20093;-82
2021/01/18 01:25:16;;;;;;;25.30;4.45;;;1.40;97.00;;;;;;4975213;28;20627;-82
2021/01/18 01:27:42;;;;;;;12.45;3.78;;;1.40;97.00;;;;;;4974577;28;20189;-82
2021/01/18 01:30:16;;;;;;;16.85;3.45;;;1.40;97.10;;;;;;4975321;28;20070;-83
2021/01/18 01:32:44;;;;;;;17.33;2.97;;;1.40;97.00;;;;;;4974446;28;20085;-82
2021/01/18 01:35:11;;;;;;;21.35;4.50;;;1.40;97.00;;;;;;4974975;28;20049;-82
2021/01/18 01:37:37;;;;;;;17.17;3.65;;;1.40;97.00;;;;;;4974629;28;20093;-79
2021/01/18 01:40:08;;;;;;;15.82;2.90;;;1.40;97.10;;;;;;4975155;28;20049;-82
2021/01/18 01:42:34;;;;;;;22.08;3.10;;;1.40;97.10;;;;;;4970269;28;20511;-81
2021/01/18 01:45:00;;;;;;;16.30;2.60;;;1.40;97.10;;;;;;4955027;28;20047;-81
2021/01/18 01:47:34;;;;;;;16.05;2.70;;;1.40;97.10;;;;;;4970784;28;20098;-82
2021/01/18 01:50:03;;;;;;;20.33;3.80;;;1.40;97.10;;;;;;4953676;28;20036;-81
2021/01/18 01:52:30;;;;;;;18.23;3.33;;;1.50;97.10;;;;;;4953962;29;20460;-81
2021/01/18 01:54:59;;;;;;;16.48;3.15;;;1.50;97.10;;;;;;4954687;28;20303;-81
2021/01/18 01:57:25;;;;;;;30.33;12.00;;;1.50;97.10;;;;;;4955488;28;20125;-82
2021/01/18 01:59:52;;;;;;;15.82;3.70;;;1.50;97.10;;;;;;4954531;28;20436;-82
2021/01/18 02:02:18;;;;;;;16.95;3.03;;;1.60;97.10;;;;;;4955769;29;20118;-82
2021/01/18 02:04:47;;;;;;;18.85;3.05;;;1.60;97.00;;;;;;4954386;29;20056;-81
2021/01/18 02:07:27;;;;;;;11.45;3.40;;;1.60;97.00;;;;;;4955306;28;20094;-82
2021/01/18 02:09:54;;;;;;;17.55;3.08;;;1.60;97.10;;;;;;4954551;28;20047;-81
2021/01/18 02:12:21;;;;;;;10.27;2.60;;;1.60;97.10;;;;;;4955009;29;20130;-81
2021/01/18 02:15:10;;;;;;;12.15;2.63;;;1.60;97.10;;;;;;4953814;29;20126;-81
2021/01/18 02:17:42;;;;;;;13.57;2.92;;;1.60;97.10;;;;;;4955527;28;20074;-82
2021/01/18 02:20:40;;;;;;;16.40;3.10;;;1.50;97.10;;;;;;4974073;28;20053;-81
2021/01/18 02:23:20;;;;;;;13.32;3.28;;;1.50;97.20;;;;;;4933794;28;20414;-81
2021/01/18 02:25:54;;;;;;;20.98;5.70;;;1.60;97.20;;;;;;4954098;29;20062;-82
2021/01/18 02:28:40;;;;;;;13.20;2.75;;;1.60;97.20;;;;;;4954603;29;20400;-83
2021/01/18 02:31:18;;;;;;;13.63;5.32;;;1.70;97.10;;;;;;4954491;29;20051;-82
2021/01/18 02:34:09;;;;;;;17.65;5.55;;;1.80;97.10;;;;;;4953603;29;20039;-80
2021/01/18 02:36:57;;;;;;;13.73;2.70;;;1.80;97.10;;;;;;4954848;29;20480;-82
2021/01/18 02:39:41;;;;;;;11.50;2.20;;;1.90;97.10;;;;;;4952687;29;20439;-82
2021/01/18 02:42:12;;;;;;;13.80;2.75;;;1.90;97.30;;;;;;4954028;29;20496;-82
2021/01/18 02:44:40;;;;;;;9.15;2.20;;;1.90;97.00;;;;;;4953469;29;20047;-82
2021/01/18 02:47:07;;;;;;;14.85;2.53;;;1.90;97.00;;;;;;4954149;28;20040;-82
2021/01/18 02:49:33;;;;;;;13.98;2.95;;;1.90;97.00;;;;;;4954377;28;20444;-81
2021/01/18 02:52:03;;;;;;;12.88;2.42;;;1.90;97.00;;;;;;4953553;29;20114;-82
2021/01/18 02:54:29;;;;;;;22.70;11.18;;;1.90;97.00;;;;;;4954118;28;20484;-82
2021/01/18 02:56:57;;;;;;;15.90;4.40;;;1.90;96.90;;;;;;4968484;28;20049;-82
2021/01/18 02:59:23;;;;;;;19.23;5.07;;;1.90;97.00;;;;;;4952808;29;20039;-82
2021/01/18 03:02:22;;;;;;;15.30;4.10;;;1.90;97.10;;;;;;4953145;28;20062;-82
2021/01/18 03:05:00;;;;;;;16.35;3.13;;;1.90;97.10;;;;;;4953359;29;20126;-82
2021/01/18 03:07:41;;;;;;;12.10;2.40;;;1.90;97.00;;;;;;4954293;29;20479;-81
2021/01/18 03:10:12;;;;;;;13.77;2.60;;;1.80;97.00;;;;;;4953609;29;20079;-82
2021/01/18 03:13:15;;;;;;;14.00;2.90;;;1.80;97.00;;;;;;4952822;29;20039;-82
2021/01/18 03:15:46;;;;;;;20.27;3.40;;;1.80;96.90;;;;;;4953920;28;20124;-80
2021/01/18 03:18:17;;;;;;;18.95;2.90;;;1.80;97.00;;;;;;4960410;28;20066;-82
2021/01/18 03:20:44;;;;;;;12.10;3.08;;;1.70;97.00;;;;;;4973086;28;20101;-80
2021/01/18 03:23:11;;;;;;;21.00;5.78;;;1.70;97.10;;;;;;4972830;28;20054;-81
2021/01/18 03:25:54;;;;;;;20.13;4.20;;;1.70;97.10;;;;;;4988163;28;20121;-81
2021/01/18 03:28:21;;;;;;;16.75;4.30;;;1.70;97.20;;;;;;4973374;28;20046;-82
2021/01/18 03:30:47;;;;;;;15.05;4.45;;;1.70;97.20;;;;;;4971947;28;20043;-80
2021/01/18 03:33:14;;;;;;;20.73;4.00;;;1.80;97.20;;;;;;4973142;28;20050;-82
2021/01/18 03:35:40;;;;;;;15.40;3.40;;;1.80;97.10;;;;;;4971911;28;20047;-82
2021/01/18 03:38:07;;;;;;;16.45;3.47;;;1.80;97.10;;;;;;4971943;28;20342;-81
2021/01/18 03:40:34;;;;;;;19.90;3.20;;;1.80;97.30;;;;;;4972942;28;20440;-81
2021/01/18 03:43:02;;;;;;;13.38;3.20;;;1.80;97.40;;;;;;4959918;28;20043;-81
2021/01/18 03:45:30;;;;;;;16.08;3.33;;;1.80;97.10;;;;;;4968018;28;20122;-81
2021/01/18 03:47:56;;;;;;;16.17;3.50;;;1.90;97.10;;;;;;4967702;28;20055;-81
2021/01/18 03:50:22;;;;;;;14.38;2.97;;;1.90;97.00;;;;;;4952558;29;20137;-81
2021/01/18 03:52:49;;;;;;;16.65;3.30;;;1.90;97.00;;;;;;4952841;28;20138;-80
2021/01/18 03:55:16;;;;;;;13.93;3.70;;;1.90;97.00;;;;;;4953444;28;20504;-81
2021/01/18 03:57:44;;;;;;;15.13;4.53;;;1.90;97.10;;;;;;4953523;28;20138;-81
2021/01/18 04:00:11;;;;;;;19.23;4.85;;;1.90;97.10;;;;;;4952763;28;20051;-81
2021/01/18 04:02:37;;;;;;;18.63;3.65;;;1.90;97.10;;;;;;4968458;28;20047;-81
2021/01/18 04:05:05;;;;;;;14.50;3.58;;;2.00;97.00;;;;;;4952277;29;20047;-82
2021/01/18 04:07:30;;;;;;;16.15;4.28;;;2.00;97.00;;;;;;4968157;28;20044;-82
2021/01/18 04:09:56;;;;;;;21.27;6.40;;;2.10;96.90;;;;;;4952701;29;20043;-81
2021/01/18 04:12:22;;;;;;;19.67;5.00;;;2.00;96.90;;;;;;4964828;28;20476;-81
2021/01/18 04:14:49;;;;;;;16.60;3.92;;;2.00;96.90;;;;;;4937466;29;20040;-80
2021/01/18 04:17:20;;;;;;;13.50;4.07;;;1.90;97.00;;;;;;4937884;29;20060;-82
2021/01/18 04:19:46;;;;;;;15.00;4.82;;;2.00;97.10;;;;;;4972154;28;20062;-80
2021/01/18 04:22:12;;;;;;;16.70;3.83;;;2.00;97.10;;;;;;4956732;29;20043;-82
2021/01/18 04:24:38;;;;;;;15.48;3.63;;;2.00;97.10;;;;;;4957222;29;20114;-82
2021/01/18 04:27:07;;;;;;;13.90;3.80;;;2.00;97.10;;;;;;4956101;29;20487;-81
2021/01/18 04:29:33;;;;;;;16.42;3.28;;;2.10;97.10;;;;;;4957023;29;20039;-81
2021/01/18 04:31:59;;;;;;;12.35;3.22;;;2.20;97.00;;;;;;4955069;29;20043;-81
2021/01/18 04:34:25;;;;;;;16.20;4.50;;;2.30;97.00;;;;;;4955765;29;20066;-81
2021/01/18 04:36:51;;;;;;;15.30;3.92;;;2.30;96.90;;;;;;4971199;28;20544;-80
2021/01/18 04:39:16;;;;;;;15.35;4.07;;;2.40;96.90;;;;;;4956959;29;20082;-82
2021/01/18 04:41:45;;;;;;;14.50;3.92;;;2.40;96.80;;;;;;4971391;28;20055;-81
2021/01/18 04:44:14;;;;;;;13.60;3.78;;;2.40;96.70;;;;;;4955403;29;20188;-81
2021/01/18 04:46:45;;;;;;;16.67;5.28;;;2.50;96.70;;;;;;4956788;29;20039;-82
2021/01/18 04:49:13;;;;;;;17.40;6.28;;;2.50;96.70;;;;;;4955998;29;20310;-81
2021/01/18 04:51:50;;;;;;;19.15;5.20;;;2.50;96.60;;;;;;4956635;29;20102;-81
2021/01/18 04:54:21;;;;;;;16.75;5.15;;;2.60;96.50;;;;;;4956294;29;20542;-81
2021/01/18 04:57:13;;;;;;;16.60;4.88;;;2.60;96.40;;;;;;4956166;29;20051;-81
2021/01/18 04:59:47;;;;;;;19.80;9.75;;;2.60;96.40;;;;;;4956432;29;20392;-82
2021/01/18 05:02:19;;;;;;;15.73;4.53;;;2.60;96.40;;;;;;4955668;29;20618;-82
2021/01/18 05:04:52;;;;;;;11.57;4.55;;;2.60;96.50;;;;;;4956759;29;20526;-82
2021/01/18 05:08:04;;;;;;;13.23;4.95;;;2.60;96.60;;;;;;4955994;29;20094;-81
2021/01/18 05:10:32;;;;;;;14.63;4.97;;;2.70;96.50;;;;;;4955075;29;20058;-82
2021/01/18 05:13:02;;;;;;;12.73;4.00;;;2.80;96.50;;;;;;4955153;29;20483;-81
2021/01/18 05:15:28;;;;;;;12.82;3.70;;;2.70;96.50;;;;;;4956333;28;20102;-82
2021/01/18 05:17:59;;;;;;;15.75;3.92;;;2.70;96.60;;;;;;4958107;28;20049;-80
2021/01/18 05:20:25;;;;;;;13.60;4.18;;;2.70;96.60;;;;;;4975494;28;20082;-81
2021/01/18 05:22:52;;;;;;;18.75;4.18;;;2.80;96.70;;;;;;4975225;28;20043;-80
2021/01/18 05:25:19;;;;;;;15.70;4.38;;;2.70;96.70;;;;;;4974310;28;20623;-81
2021/01/18 05:28:09;;;;;;;16.65;4.25;;;2.70;96.70;;;;;;4975463;28;20070;-81
2021/01/18 05:30:40;;;;;;;14.90;4.57;;;2.70;96.70;;;;;;4966524;28;20117;-82
2021/01/18 05:33:14;;;;;;;16.70;4.80;;;2.70;96.80;;;;;;4974421;28;20051;-80
2021/01/18 05:35:49;;;;;;;18.70;5.10;;;2.80;96.90;;;;;;4975260;28;20042;-82
2021/01/18 05:38:15;;;;;;;20.97;5.40;;;2.80;96.90;;;;;;4974427;28;20043;-82
2021/01/18 05:40:43;;;;;;;20.85;5.35;;;2.90;96.80;;;;;;4975226;28;20410;-82
2021/01/18 05:43:10;;;;;;;16.02;5.05;;;2.90;96.80;;;;;;4957700;28;20098;-81
2021/01/18 05:45:38;;;;;;;14.25;4.32;;;2.90;96.80;;;;;;4955645;28;20050;-81
2021/01/18 05:48:06;;;;;;;18.05;4.90;;;3.00;96.70;;;;;;4954439;28;20403;-82
2021/01/18 05:50:33;;;;;;;17.13;3.90;;;3.00;96.70;;;;;;4954460;29;20067;-81
2021/01/18 05:52:59;;;;;;;20.00;4.60;;;3.10;96.60;;;;;;4954507;28;20058;-82
2021/01/18 05:55:32;;;;;;;16.65;4.75;;;3.10;96.50;;;;;;4955458;28;20063;-81
2021/01/18 05:58:00;;;;;;;22.35;4.78;;;3.20;96.60;;;;;;4954536;29;20107;-80
2021/01/18 06:00:34;;;;;;;17.52;4.80;;;3.20;96.60;;;;;;4955459;28;20051;-81
2021/01/18 06:03:11;;;;;;;18.33;5.07;;;3.30;96.60;;;;;;4953533;29;20373;-80
2021/01/18 06:05:39;;;;;;;17.52;4.90;;;3.30;96.60;;;;;;4955361;28;20043;-81
2021/01/18 06:08:14;;;;;;;14.30;4.70;;;3.40;96.60;;;;;;4954711;28;20083;-81
2021/01/18 06:10:39;;;;;;;23.13;5.82;;;3.40;96.60;;;;;;4954632;28;20055;-80
2021/01/18 06:13:21;;;;;;;15.95;4.70;;;3.40;96.60;;;;;;4954320;29;20058;-81
2021/01/18 06:16:11;;;;;;;15.20;4.18;;;3.50;96.50;;;;;;4955334;29;20043;-81
2021/01/18 06:18:41;;;;;;;16.00;4.20;;;3.60;96.50;;;;;;4964926;28;20142;-81
2021/01/18 06:21:09;;;;;;;13.55;4.40;;;3.60;96.30;;;;;;4972234;28;20098;-81
2021/01/18 06:23:35;;;;;;;12.43;4.20;;;3.70;96.30;;;;;;4974203;28;20050;-81
2021/01/18 06:26:02;;;;;;;18.17;4.75;;;3.70;96.30;;;;;;4973210;28;20475;-81
2021/01/18 06:28:38;;;;;;;14.48;4.78;;;3.70;96.40;;;;;;4974394;28;20055;-82
2021/01/18 06:31:06;;;;;;;16.05;5.13;;;3.70;96.30;;;;;;4973103;28;20046;-83
2021/01/18 06:33:36;;;;;;;16.48;4.90;;;3.80;96.30;;;;;;4974248;28;20174;-85
2021/01/18 06:36:16;;;;;;;19.45;6.82;;;3.80;96.30;;;;;;4971178;28;20149;-80
2021/01/18 06:38:45;;;;;;;20.23;6.13;;;3.80;96.30;;;;;;4952006;29;20071;-82
2021/01/18 06:41:12;;;;;;;17.50;5.88;;;3.80;96.20;;;;;;4968795;28;20051;-82
2021/01/18 06:43:46;;;;;;;18.40;5.70;;;3.90;96.20;;;;;;4954765;28;20043;-82
2021/01/18 06:46:20;;;;;;;17.45;5.15;;;4.00;96.20;;;;;;4953884;28;20102;-82
2021/01/18 06:48:48;;;;;;;14.25;5.50;;;4.00;96.10;;;;;;4954409;28;20051;-82
2021/01/18 06:51:16;;;;;;;17.15;5.38;;;3.90;96.20;;;;;;4953310;28;20055;-82
2021/01/18 06:53:44;;;;;;;13.90;5.40;;;4.00;96.20;;;;;;4954609;28;20051;-82
2021/01/18 06:56:21;;;;;;;19.20;6.05;;;4.10;96.10;;;;;;4953630;28;20055;-82
2021/01/18 06:59:16;;;;;;;20.60;6.18;;;4.00;96.10;;;;;;4953758;28;20039;-82
2021/01/18 07:01:46;;;;;;;21.17;6.03;;;4.00;96.20;;;;;;4953277;29;20043;-82
2021/01/18 07:04:14;;;;;;;20.08;6.13;;;4.00;96.20;;;;;;4945192;28;20043;-83
2021/01/18 07:06:42;;;;;;;17.77;6.18;;;4.10;96.20;;;;;;4942495;29;20074;-79
2021/01/18 07:09:17;;;;;;;17.77;7.18;;;4.20;96.10;;;;;;4952107;29;20048;-79
2021/01/18 07:11:43;;;;;;;17.38;5.80;;;4.20;98.30;;;;;;4951128;29;20043;-82
2021/01/18 07:14:11;;;;;;;16.67;6.20;;;4.20;95.90;;;;;;4952436;28;20415;-83
2021/01/18 07:16:41;;;;;;;17.20;6.53;;;4.20;96.10;;;;;;4953937;28;20491;-82
2021/01/18 07:19:09;;;;;;;17.52;5.93;;;4.10;96.10;;;;;;4957709;28;20543;-78
2021/01/18 07:22:11;;;;;;;16.70;6.22;;;4.20;96.00;;;;;;4953901;28;20043;-82
2021/01/18 07:24:42;;;;;;;15.43;5.60;;;4.20;96.10;;;;;;4954094;28;20516;-80
2021/01/18 07:27:11;;;;;;;18.63;6.30;;;4.20;96.00;;;;;;4969680;28;20121;-80
2021/01/18 07:29:37;;;;;;;23.25;6.32;;;4.30;96.10;;;;;;4972036;28;20104;-80
2021/01/18 07:32:08;;;;;;;22.85;6.90;;;4.20;96.10;;;;;;4972528;28;20125;-80
2021/01/18 07:34:37;;;;;;;19.63;7.13;;;4.20;96.20;;;;;;4973684;28;20043;-81
2021/01/18 07:37:08;;;;;;;22.13;6.82;;;4.20;96.20;;;;;;4972833;28;20137;-80
2021/01/18 07:39:38;;;;;;;16.88;6.53;;;4.20;96.20;;;;;;4958923;28;20047;-81
2021/01/18 07:42:06;;;;;;;18.20;6.50;;;4.20;96.20;;;;;;4953709;28;20412;-80
2021/01/18 07:44:38;;;;;;;20.40;6.97;;;4.30;96.10;;;;;;4954094;28;20126;-81
2021/01/18 07:47:07;;;;;;;23.08;7.40;;;4.20;96.20;;;;;;4953393;28;20058;-80
2021/01/18 07:49:40;;;;;;;21.38;7.78;;;4.30;96.30;;;;;;4954151;28;20054;-80
2021/01/18 07:52:28;;;;;;;21.13;8.98;;;4.20;96.30;;;;;;4953611;28;20043;-80
2021/01/18 07:54:59;;;;;;;24.50;8.68;;;4.20;96.30;;;;;;4953865;28;20055;-80
2021/01/18 07:57:35;;;;;;;20.35;7.65;;;4.30;96.20;;;;;;4953533;28;20523;-80
2021/01/18 08:00:19;;;;;;;24.25;8.27;;;4.30;96.00;;;;;;4952573;29;20047;-81
2021/01/18 08:02:46;;;;;;;26.60;10.35;;;4.30;96.00;;;;;;4953820;28;20051;-80
2021/01/18 08:05:42;;;;;;;19.23;6.90;;;4.30;96.10;;;;;;4953263;28;20054;-81
2021/01/18 08:08:11;;;;;;;;;;;4.20;96.10;;;;;;4948668;28;20202;-79
2021/01/18 08:10:48;;;;;;;18.60;6.93;;;4.30;96.00;;;;;;4953332;28;19930;-80
2021/01/18 08:13:39;;;;;;;19.25;7.30;;;4.20;95.90;;;;;;4952617;28;20082;-80
2021/01/18 08:16:22;;;;;;;25.50;10.90;;;4.20;96.10;;;;;;4953278;28;20098;-80
2021/01/18 08:18:50;;;;;;;28.70;15.13;;;4.10;96.30;;;;;;4964013;28;20462;-82
2021/01/18 08:21:35;;;;;;;24.48;8.43;;;4.20;96.50;;;;;;4971756;28;20043;-82
2021/01/18 08:24:06;;;;;;;20.73;7.90;;;4.20;96.30;;;;;;4972457;28;20403;-82
2021/01/18 08:26:53;;;;;;;21.35;7.82;;;4.20;96.40;;;;;;4972184;28;20133;-82
2021/01/18 08:29:39;;;;;;;22.42;9.20;;;4.30;96.20;;;;;;4971898;28;20046;-82
2021/01/18 08:32:23;;;;;;;;;;;4.30;96.20;;;;;;4971896;28;20078;-82
2021/01/18 08:35:00;;;;;;;21.33;7.13;;;4.30;96.10;;;;;;4971226;28;20338;-83
2021/01/18 08:37:27;;;;;;;23.25;6.75;;;4.30;96.20;;;;;;4982834;28;20046;-83
2021/01/18 08:39:55;;;;;;;20.42;7.00;;;4.30;96.20;;;;;;4953036;28;20110;-83
2021/01/18 08:42:29;;;;;;;24.90;8.82;;;4.40;96.10;;;;;;4952099;29;20073;-82
2021/01/18 08:45:10;;;;;;;21.48;8.95;;;4.40;96.10;;;;;;4953062;29;20043;-83
2021/01/18 08:47:45;;;;;;;18.88;7.43;;;4.50;95.90;;;;;;4953584;29;20051;-82
2021/01/18 08:50:54;;;;;;;21.25;8.45;;;4.50;96.00;;;;;;4953121;29;20098;-82
2021/01/18 08:53:27;;;;;;;24.27;8.90;;;4.50;96.00;;;;;;4952700;29;20118;-83
2021/01/18 08:56:07;;;;;;;17.70;7.93;;;4.50;95.90;;;;;;4968617;28;20114;-83
2021/01/18 08:58:40;;;;;;;20.40;8.63;;;4.50;95.90;;;;;;4953135;28;20047;-82
2021/01/18 09:01:14;;;;;;;16.00;7.15;;;4.60;95.80;;;;;;4956018;29;20039;-83
2021/01/18 09:03:40;;;;;;;17.08;7.35;;;4.60;95.80;;;;;;4957102;29;20043;-82
2021/01/18 09:06:06;;;;;;;21.48;8.75;;;4.60;95.80;;;;;;4957015;29;20050;-82
2021/01/18 09:08:32;;;;;;;21.35;9.77;;;4.60;95.80;;;;;;4956315;29;20057;-82
2021/01/18 09:11:04;;;;;;;19.95;8.02;;;4.50;95.70;;;;;;4957186;28;20043;-82
2021/01/18 09:13:31;;;;;;;21.20;6.90;;;4.60;95.90;;;;;;4956219;29;20103;-82
2021/01/18 09:16:00;;;;;;;20.63;8.00;;;4.60;96.10;;;;;;4956820;29;20077;-83
2021/01/18 09:18:26;;;;;;;26.05;7.15;;;4.60;96.10;;;;;;4963628;28;20146;-82
2021/01/18 09:20:57;;;;;;;21.15;7.30;;;4.60;95.90;;;;;;4975984;28;20053;-82
2021/01/18 09:23:25;;;;;;;22.15;6.93;;;4.60;96.20;;;;;;4975307;28;20046;-82
2021/01/18 09:26:11;;;;;;;26.25;8.27;;;4.60;96.10;;;;;;4975980;28;20041;-82
2021/01/18 09:28:37;;;;;;;14.23;6.15;;;4.60;96.10;;;;;;4975989;28;20093;-82
2021/01/18 09:31:11;;;;;;;19.90;6.72;;;4.70;96.20;;;;;;4975872;28;20078;-83
2021/01/18 09:33:37;;;;;;;23.45;9.65;;;4.80;96.00;;;;;;4975500;28;20058;-82
2021/01/18 09:36:04;;;;;;;18.60;7.18;;;4.80;96.00;;;;;;4974367;28;20043;-83
2021/01/18 09:38:30;;;;;;;20.25;7.10;;;4.80;96.10;;;;;;4956072;28;20340;-82
2021/01/18 09:40:56;;;;;;;16.25;4.85;;;4.80;96.00;;;;;;4956332;29;20558;-82
2021/01/18 09:43:22;;;;;;;16.13;5.43;;;4.90;95.80;;;;;;4955691;29;20051;-83
2021/01/18 09:45:55;;;;;;;20.48;6.07;;;4.90;95.80;;;;;;4956329;28;20049;-83
2021/01/18 09:48:25;;;;;;;15.48;5.60;;;4.90;96.00;;;;;;4955526;28;20047;-83
2021/01/18 09:51:05;;;;;;;21.52;6.93;;;5.00;95.80;;;;;;4956204;28;20049;-83
2021/01/18 09:53:32;;;;;;;14.32;5.45;;;5.00;95.80;;;;;;4955517;28;20372;-83
2021/01/18 09:56:03;;;;;;;16.70;6.85;;;5.00;95.70;;;;;;4955794;28;20047;-83
2021/01/18 09:58:34;;;;;;;15.10;4.78;;;5.00;95.80;;;;;;4955191;29;20043;-83
2021/01/18 10:01:02;;;;;;;18.60;8.60;;;5.10;95.80;;;;;;4955922;29;20047;-83
2021/01/18 10:03:32;;;;;;;23.52;9.73;;;5.10;95.80;;;;;;4955046;29;20400;-83
2021/01/18 10:06:07;;;;;;;19.83;7.00;;;5.00;95.90;;;;;;4956293;29;20055;-83
2021/01/18 10:08:36;;;;;;;19.38;7.03;;;5.10;95.90;;;;;;4954842;29;20047;-83
2021/01/18 10:11:02;;;;;;;18.77;4.80;;;5.10;96.10;;;;;;4954874;28;20040;-83
2021/01/18 10:13:28;;;;;;;16.08;4.28;;;5.10;96.00;;;;;;4955050;28;20051;-82
2021/01/18 10:15:54;;;;;;;15.98;4.32;;;5.00;96.00;;;;;;4955375;29;20047;-83
2021/01/18 10:18:27;;;;;;;15.95;4.30;;;5.10;95.90;;;;;;4962614;28;20051;-83
2021/01/18 10:20:54;;;;;;;15.43;4.10;;;5.10;96.00;;;;;;4974664;28;20503;-83
2021/01/18 10:23:20;;;;;;;12.43;3.65;;;5.00;96.00;;;;;;4974292;28;20046;-82
2021/01/18 10:25:46;;;;;;;15.82;4.15;;;5.10;96.00;;;;;;4974695;28;20049;-83
2021/01/18 10:28:19;;;;;;;15.35;5.15;;;5.00;96.20;;;;;;4974403;28;20453;-83
2021/01/18 10:30:46;;;;;;;16.23;4.85;;;5.00;96.30;;;;;;4973125;28;20046;-83
2021/01/18 10:33:17;;;;;;;13.68;4.90;;;5.10;96.20;;;;;;4974602;28;20039;-80
2021/01/18 10:35:44;;;;;;;15.90;4.43;;;5.00;96.30;;;;;;4973653;28;20047;-80
2021/01/18 10:38:19;;;;;;;13.75;4.50;;;5.00;96.20;;;;;;4973828;28;20085;-80
2021/01/18 10:41:03;;;;;;;13.27;4.07;;;5.00;96.20;;;;;;4974151;28;20074;-80
2021/01/18 10:43:29;;;;;;;16.65;3.90;;;5.10;96.20;;;;;;4973240;28;20179;-80
2021/01/18 10:45:57;;;;;;;14.55;3.88;;;5.00;96.30;;;;;;4971574;28;20542;-80
2021/01/18 10:48:27;;;;;;;19.20;4.35;;;5.00;96.40;;;;;;4953958;28;20123;-80
2021/01/18 10:51:02;;;;;;;14.80;3.67;;;5.10;96.30;;;;;;4954495;28;20054;-80
2021/01/18 10:53:30;;;;;;;14.13;3.28;;;5.10;96.10;;;;;;4968856;28;20044;-80
2021/01/18 10:56:15;;;;;;;11.90;4.10;;;5.20;96.10;;;;;;4954288;28;20467;-80
2021/01/18 10:58:43;;;;;;;17.00;3.90;;;5.10;96.20;;;;;;4968789;28;20399;-80
2021/01/18 11:01:13;;;;;;;9.75;3.25;;;5.10;96.20;;;;;;4954411;28;20053;-80
2021/01/18 11:03:40;;;;;;;14.93;3.90;;;5.10;96.20;;;;;;4953701;29;20065;-80
2021/01/18 11:06:11;;;;;;;13.32;3.38;;;5.10;96.30;;;;;;4954338;28;20047;-81
2021/01/18 11:08:37;;;;;;;14.48;4.50;;;5.20;96.40;;;;;;4953265;28;20066;-80
2021/01/18 11:11:28;;;;;;;14.52;3.58;;;5.10;96.40;;;;;;4952991;29;20130;-79
2021/01/18 11:14:05;;;;;;;20.98;8.40;;;5.20;96.30;;;;;;4954383;28;20043;-79
2021/01/18 11:16:32;;;;;;;17.92;7.53;;;5.20;96.30;;;;;;4953267;28;20043;-80
2021/01/18 11:19:03;;;;;;;17.55;4.45;;;5.20;96.20;;;;;;4954046;28;20056;-79
2021/01/18 11:21:29;;;;;;;15.55;3.83;;;5.30;96.20;;;;;;4952918;28;20043;-80
2021/01/18 11:23:55;;;;;;;11.52;3.17;;;5.30;96.10;;;;;;4968900;28;20403;-83
2021/01/18 11:26:22;;;;;;;15.05;3.97;;;5.30;96.10;;;;;;4953427;29;20043;-82
2021/01/18 11:28:48;;;;;;;13.07;4.13;;;5.30;96.10;;;;;;4952653;29;20043;-83
2021/01/18 11:31:14;;;;;;;13.27;3.17;;;5.40;96.20;;;;;;4953965;29;20074;-82
2021/01/18 11:33:41;;;;;;;14.18;3.42;;;5.40;96.10;;;;;;4953455;29;20039;-82
2021/01/18 11:36:06;;;;;;;10.98;3.55;;;5.40;96.10;;;;;;4953667;29;20070;-82
2021/01/18 11:38:32;;;;;;;14.80;3.17;;;5.40;96.20;;;;;;4952973;29;20502;-82
2021/01/18 11:41:00;;;;;;;12.75;2.92;;;5.50;96.00;;;;;;4952713;29;20062;-82
2021/01/18 11:43:26;;;;;;;13.65;2.85;;;5.50;95.90;;;;;;4951593;29;20047;-81
2021/01/18 11:45:52;;;;;;;12.55;2.83;;;5.50;95.90;;;;;;4953665;29;20047;-81
2021/01/18 11:48:17;;;;;;;20.00;3.10;;;5.60;95.90;;;;;;4953782;29;20073;-82
2021/01/18 11:50:43;;;;;;;12.52;2.90;;;5.60;95.90;;;;;;4953050;29;20043;-82
2021/01/18 11:53:10;;;;;;;11.32;2.70;;;5.60;95.80;;;;;;4954116;29;20432;-82
2021/01/18 11:55:36;;;;;;;13.77;2.58;;;5.70;95.70;;;;;;4953071;28;20071;-82
2021/01/18 11:58:02;;;;;;;13.48;2.88;;;5.70;95.50;;;;;;4952131;29;20458;-82
2021/01/18 12:00:29;;;;;;;10.80;2.63;;;5.80;95.40;;;;;;4952561;29;20079;-81
2021/01/18 12:03:00;;;;;;;13.40;2.85;;;5.90;95.20;;;;;;4953586;28;20105;-82
2021/01/18 12:05:27;;;;;;;14.45;2.72;;;5.90;95.40;;;;;;4952185;28;20050;-82
2021/01/18 12:07:57;;;;;;;11.65;2.30;;;6.00;95.10;;;;;;4968441;28;20464;-82
2021/01/18 12:10:24;;;;;;;11.48;2.67;;;6.00;95.00;;;;;;4953078;29;20054;-82
2021/01/18 12:12:50;;;;;;;11.82;2.65;;;6.00;94.90;;;;;;4953290;29;20051;-82
2021/01/18 12:15:16;;;;;;;15.27;3.03;;;6.00;94.80;;;;;;4953674;29;20075;-82
2021/01/18 12:17:43;;;;;;;12.98;2.45;;;6.10;94.70;;;;;;4954092;28;20260;-82
2021/01/18 12:20:11;;;;;;;12.20;2.70;;;6.10;94.40;;;;;;4972634;28;20720;-82
2021/01/18 12:22:37;;;;;;;10.98;2.58;;;6.20;94.50;;;;;;4971542;28;20138;-82
2021/01/18 12:25:05;;;;;;;10.38;2.78;;;6.30;94.10;;;;;;4971312;28;20196;-82
2021/01/18 12:27:31;;;;;;;8.90;2.50;;;6.30;94.10;;;;;;4951131;29;20087;-82
2021/01/18 12:29:58;;;;;;;16.23;3.15;;;6.30;94.20;;;;;;4953501;29;20081;-82
2021/01/18 12:32:24;;;;;;;17.00;2.88;;;6.30;94.10;;;;;;4953365;28;20126;-82
2021/01/18 12:34:50;;;;;;;15.52;2.85;;;6.30;93.90;;;;;;4954705;28;20043;-82
2021/01/18 12:37:16;;;;;;;12.43;2.70;;;6.40;93.60;;;;;;4957149;29;20372;-82
2021/01/18 12:39:42;;;;;;;13.25;2.65;;;6.40;93.60;;;;;;4955983;29;20043;-82
2021/01/18 12:42:08;;;;;;;14.40;3.38;;;6.40;93.40;;;;;;4956891;29;20043;-82
2021/01/18 12:44:34;;;;;;;15.45;2.75;;;6.40;93.00;;;;;;4971067;28;20055;-82
2021/01/18 12:47:01;;;;;;;13.43;2.60;;;6.50;93.00;;;;;;4968389;28;20051;-83
2021/01/18 12:49:27;;;;;;;12.85;2.97;;;6.50;92.70;;;;;;4937370;29;20039;-82
2021/01/18 12:51:53;;;;;;;9.40;2.80;;;6.30;93.20;;;;;;4937317;29;20051;-83
2021/01/18 12:54:19;;;;;;;14.65;3.25;;;6.40;92.60;;;;;;4937583;29;20043;-83
2021/01/18 12:56:45;;;;;;;9.48;2.30;;;6.40;92.90;;;;;;4936467;29;20902;-82
2021/01/18 12:59:11;;;;;;;11.95;2.38;;;6.40;92.90;;;;;;4936327;29;20126;-83
2021/01/18 13:01:37;;;;;;;11.25;2.88;;;6.40;92.40;;;;;;4936664;29;20075;-82
2021/01/18 13:04:04;;;;;;;12.68;2.90;;;6.40;92.50;;;;;;4937514;29;20043;-83
2021/01/18 13:06:38;;;;;;;12.13;2.50;;;6.40;92.60;;;;;;4951647;29;20050;-82